createdAt,value
2018-05-03T00:00:47.622Z,9.50
2018-05-03T00:03:15.126Z,9.50
2018-05-03T00:05:42.604Z,9.40
2018-05-03T00:08:10.829Z,9.40
2018-05-03T00:10:38.650Z,9.40
2018-05-03T00:13:06.110Z,9.40
2018-05-03T00:15:33.609Z,9.60
2018-05-03T00:18:01.415Z,9.60
2018-05-03T00:20:29.641Z,9.70
2018-05-03T00:22:57.117Z,9.80
2018-05-03T00:25:24.902Z,9.60
2018-05-03T00:27:52.366Z,9.50
2018-05-03T00:30:20.620Z,9.50
2018-05-03T00:32:48.102Z,9.60
2018-05-03T00:35:15.588Z,9.60
2018-05-03T00:37:43.052Z,9.70
2018-05-03T00:40:10.875Z,9.80
2018-05-03T00:42:39.123Z,9.70
2018-05-03T00:45:06.710Z,9.70
2018-05-03T00:47:34.582Z,9.60
2018-05-03T00:50:02.813Z,9.90
2018-05-03T00:52:30.285Z,9.90
2018-05-03T00:54:58.074Z,9.90
2018-05-03T00:57:26.326Z,9.80
2018-05-03T00:59:53.830Z,9.90
2018-05-03T01:02:21.631Z,9.70
2018-05-03T01:04:49.849Z,9.70
2018-05-03T01:07:17.318Z,9.70
2018-05-03T01:09:45.122Z,9.60
2018-05-03T01:12:12.625Z,9.60
2018-05-03T01:14:40.861Z,9.60
2018-05-03T01:17:08.774Z,9.50
2018-05-03T01:19:36.367Z,9.40
2018-05-03T01:22:03.836Z,9.40
2018-05-03T01:24:31.642Z,9.40
2018-05-03T01:26:59.119Z,9.40
2018-05-03T01:29:26.601Z,9.30
2018-05-03T01:31:54.419Z,9.30
2018-05-03T01:34:22.670Z,9.20
2018-05-03T01:36:50.159Z,9.20
2018-05-03T01:39:18.734Z,9.10
2018-05-03T01:41:46.619Z,9.20
2018-05-03T01:44:14.868Z,9.10
2018-05-03T01:46:42.639Z,9.00
2018-05-03T01:49:10.107Z,9.00
2018-05-03T01:51:37.564Z,9.00
2018-05-03T01:54:06.147Z,9.10
2018-05-03T01:56:33.612Z,9.20
2018-05-03T01:59:01.840Z,9.30
2018-05-03T02:01:29.618Z,9.40
2018-05-03T02:03:57.477Z,9.40
2018-05-03T02:06:24.938Z,9.30
2018-05-03T02:08:52.671Z,9.30
2018-05-03T02:11:20.134Z,9.30
2018-05-03T02:13:48.022Z,9.20
2018-05-03T02:16:15.509Z,9.20
2018-05-03T02:18:43.734Z,9.20
2018-05-03T02:21:11.463Z,9.20
2018-05-03T02:23:39.422Z,9.20
2018-05-03T02:26:07.315Z,9.20
2018-05-03T02:28:34.809Z,9.20
2018-05-03T02:31:02.316Z,9.20
2018-05-03T02:33:30.009Z,9.20
2018-05-03T02:35:57.593Z,9.20
2018-05-03T02:38:26.251Z,9.30
2018-05-03T02:40:53.776Z,9.30
2018-05-03T02:43:21.645Z,9.30
2018-05-03T02:45:50.336Z,9.30
2018-05-03T02:48:17.805Z,9.40
2018-05-03T02:50:45.282Z,9.40
2018-05-03T02:53:13.086Z,9.50
2018-05-03T02:55:40.545Z,9.50
2018-05-03T02:58:20.670Z,9.40
2018-05-03T03:01:05.611Z,9.30
2018-05-03T03:03:51.228Z,9.30
2018-05-03T03:06:36.238Z,9.20
2018-05-03T03:09:22.523Z,9.20
2018-05-03T03:12:07.958Z,9.20
2018-05-03T03:14:53.870Z,9.10
2018-05-03T03:17:38.866Z,9.00
2018-05-03T03:34:01.171Z,8.60
2018-05-03T03:50:01.699Z,8.10
2018-05-03T03:52:29.570Z,8.10
2018-05-03T03:54:57.799Z,8.10
2018-05-03T03:57:25.613Z,8.10
2018-05-03T03:59:53.089Z,8.10
2018-05-03T04:02:20.567Z,8.10
2018-05-03T04:04:48.307Z,8.00
2018-05-03T04:07:15.810Z,8.00
2018-05-03T04:09:43.385Z,7.90
2018-05-03T04:12:11.988Z,7.90
2018-05-03T04:14:40.283Z,7.80
2018-05-03T04:17:07.763Z,7.80
2018-05-03T04:19:47.297Z,7.80
2018-05-03T04:22:26.792Z,7.80
2018-05-03T04:25:07.007Z,7.90
2018-05-03T04:27:34.477Z,7.90
2018-05-03T04:30:02.055Z,7.90
2018-05-03T04:32:30.632Z,7.90
2018-05-03T04:34:58.141Z,7.80
2018-05-03T04:37:25.606Z,7.90
2018-05-03T04:39:53.445Z,7.90
2018-05-03T04:42:21.003Z,8.00
2018-05-03T04:44:48.510Z,7.90
2018-05-03T04:47:16.593Z,7.90
2018-05-03T04:49:44.086Z,8.00
2018-05-03T04:52:12.168Z,8.00
2018-05-03T04:54:40.824Z,8.10
2018-05-03T04:57:09.075Z,8.10
2018-05-03T04:59:36.618Z,8.20
2018-05-03T05:02:04.117Z,8.20
2018-05-03T05:04:32.401Z,8.40
2018-05-03T05:07:00.635Z,8.40
2018-05-03T05:09:28.429Z,8.60
2018-05-03T05:11:56.658Z,8.80
2018-05-03T05:14:24.166Z,9.00
2018-05-03T05:16:52.951Z,9.30
2018-05-03T05:19:21.219Z,9.80
2018-05-03T05:21:48.697Z,9.70
2018-05-03T05:24:16.711Z,10.00
2018-05-03T05:26:44.132Z,9.90
2018-05-03T05:29:11.609Z,9.90
2018-05-03T05:31:39.117Z,9.70
2018-05-03T05:34:07.347Z,10.00
2018-05-03T05:36:34.858Z,9.90
2018-05-03T05:39:03.254Z,9.80
2018-05-03T05:41:31.394Z,9.80
2018-05-03T05:43:58.888Z,9.80
2018-05-03T05:46:26.733Z,9.90
2018-05-03T05:48:54.982Z,10.00
2018-05-03T05:51:22.520Z,10.10
2018-05-03T05:53:50.328Z,10.10
2018-05-03T05:56:18.563Z,10.50
2018-05-03T05:58:46.150Z,10.50
2018-05-03T06:01:13.998Z,10.60
2018-05-03T06:03:41.482Z,10.70
2018-05-03T06:06:09.023Z,10.80
2018-05-03T06:08:36.837Z,11.00
2018-05-03T06:11:04.314Z,11.10
2018-05-03T06:13:31.844Z,11.00
2018-05-03T06:15:59.603Z,11.10
2018-05-03T06:18:27.063Z,11.00
2018-05-03T06:20:54.563Z,11.10
2018-05-03T06:23:22.361Z,11.10
2018-05-03T06:25:50.694Z,11.70
2018-05-03T06:28:18.117Z,11.70
2018-05-03T06:30:45.863Z,11.60
2018-05-03T06:33:14.109Z,12.00
2018-05-03T06:35:41.600Z,12.00
2018-05-03T06:38:10.233Z,12.70
2018-05-03T06:40:37.736Z,12.60
2018-05-03T06:43:05.970Z,12.90
2018-05-03T06:45:33.847Z,12.90
2018-05-03T06:48:01.311Z,13.10
2018-05-03T06:50:28.792Z,13.10
2018-05-03T06:52:57.039Z,13.90
2018-05-03T06:55:24.513Z,13.90
2018-05-03T06:57:52.068Z,14.60
2018-05-03T07:00:19.598Z,14.50
2018-05-03T07:02:47.074Z,14.60
2018-05-03T07:05:14.629Z,14.90
2018-05-03T07:07:42.426Z,14.50
2018-05-03T07:10:09.949Z,14.60
2018-05-03T07:12:37.419Z,14.40
2018-05-03T07:15:04.893Z,15.20
2018-05-03T07:17:33.134Z,16.20
2018-05-03T07:20:00.651Z,16.20
2018-05-03T07:22:28.137Z,15.70
2018-05-03T07:24:55.633Z,16.10
2018-05-03T07:27:23.887Z,16.60
2018-05-03T07:29:51.370Z,16.60
2018-05-03T07:32:18.873Z,15.50
2018-05-03T07:34:46.487Z,15.40
2018-05-03T07:37:14.729Z,15.60
2018-05-03T07:39:42.214Z,15.60
2018-05-03T07:42:09.735Z,15.00
2018-05-03T07:44:37.250Z,14.90
2018-05-03T07:47:05.511Z,15.20
2018-05-03T07:49:33.132Z,15.20
2018-05-03T07:52:00.610Z,14.90
2018-05-03T07:54:28.088Z,14.70
2018-05-03T07:56:56.505Z,14.50
2018-05-03T07:59:24.347Z,14.40
2018-05-03T08:01:52.583Z,14.20
2018-05-03T08:04:20.076Z,14.20
2018-05-03T08:06:48.831Z,14.30
2018-05-03T08:09:16.597Z,14.20
2018-05-03T08:11:44.087Z,14.20
2018-05-03T08:14:12.325Z,14.70
2018-05-03T08:16:39.821Z,14.70
2018-05-03T08:19:07.354Z,14.70
2018-05-03T08:21:34.885Z,14.70
2018-05-03T08:24:02.407Z,14.80
2018-05-03T08:26:29.964Z,15.30
2018-05-03T08:28:57.476Z,15.50
2018-05-03T08:31:24.977Z,15.60
2018-05-03T08:33:52.869Z,16.20
2018-05-03T08:36:20.369Z,16.20
2018-05-03T08:38:47.834Z,16.80
2018-05-03T08:41:16.112Z,16.80
2018-05-03T08:43:44.366Z,17.00
2018-05-03T08:46:11.912Z,17.00
2018-05-03T08:48:39.450Z,17.50
2018-05-03T08:51:06.957Z,17.00
2018-05-03T08:53:35.203Z,17.30
2018-05-03T08:56:02.686Z,17.30
2018-05-03T08:58:30.168Z,16.90
2018-05-03T09:00:58.409Z,17.20
2018-05-03T09:03:26.673Z,17.70
2018-05-03T09:05:54.472Z,17.70
2018-05-03T09:08:21.965Z,18.10
2018-05-03T09:10:49.474Z,17.70
2018-05-03T09:13:17.342Z,17.40
2018-05-03T09:15:44.898Z,17.50
2018-05-03T09:18:12.403Z,18.50
2018-05-03T09:20:40.252Z,17.30
2018-05-03T09:23:07.712Z,17.70
2018-05-03T09:25:35.193Z,18.40
2018-05-03T09:28:02.995Z,18.20
2018-05-03T09:30:30.505Z,17.80
2018-05-03T09:32:57.986Z,16.90
2018-05-03T09:35:25.789Z,17.40
2018-05-03T09:37:54.027Z,16.80
2018-05-03T09:40:21.526Z,16.70
2018-05-03T09:42:49.394Z,16.90
2018-05-03T09:45:17.633Z,18.00
2018-05-03T09:47:45.117Z,18.00
2018-05-03T09:50:12.602Z,19.00
2018-05-03T09:52:40.142Z,19.20
2018-05-03T09:55:07.621Z,19.00
2018-05-03T09:57:35.378Z,19.10
2018-05-03T10:00:02.918Z,18.40
2018-05-03T10:02:31.467Z,18.10
2018-05-03T10:04:59.297Z,18.10
2018-05-03T10:07:26.802Z,18.20
2018-05-03T10:09:54.297Z,20.00
2018-05-03T10:12:21.806Z,20.00
2018-05-03T10:14:50.082Z,18.70
2018-05-03T10:17:17.866Z,18.60
2018-05-03T10:19:45.633Z,19.30
2018-05-03T10:22:13.955Z,19.40
2018-05-03T10:24:41.447Z,20.00
2018-05-03T10:27:08.943Z,19.90
2018-05-03T10:29:37.220Z,19.90
2018-05-03T10:32:04.706Z,19.90
2018-05-03T10:34:32.204Z,18.80
2018-05-03T10:36:59.691Z,18.90
2018-05-03T10:39:27.970Z,18.10
2018-05-03T10:41:55.472Z,18.00
2018-05-03T10:44:22.966Z,18.80
2018-05-03T10:46:50.472Z,20.60
2018-05-03T10:49:17.962Z,19.90
2018-05-03T10:51:45.441Z,19.70
2018-05-03T10:54:13.739Z,18.90
2018-05-03T10:56:41.982Z,18.20
2018-05-03T10:59:09.473Z,18.20
2018-05-03T11:01:36.946Z,18.50
2018-05-03T11:04:04.438Z,18.30
2018-05-03T11:06:31.938Z,18.10
2018-05-03T11:08:59.522Z,16.60
2018-05-03T11:11:26.994Z,16.70
2018-05-03T11:13:54.466Z,17.50
2018-05-03T11:16:21.943Z,18.10
2018-05-03T11:18:50.197Z,18.10
2018-05-03T11:21:17.678Z,18.00
2018-05-03T11:23:45.161Z,17.60
2018-05-03T11:26:12.651Z,17.30
2018-05-03T11:28:40.125Z,17.60
2018-05-03T11:31:07.639Z,17.50
2018-05-03T11:33:35.122Z,17.10
2018-05-03T11:36:02.613Z,17.30
2018-05-03T11:38:30.108Z,17.40
2018-05-03T11:40:57.599Z,17.10
2018-05-03T11:43:25.071Z,17.30
2018-05-03T11:45:52.550Z,17.30
2018-05-03T11:48:20.049Z,17.30
2018-05-03T11:50:47.530Z,17.00
2018-05-03T11:53:15.070Z,17.30
2018-05-03T11:55:42.550Z,17.20
2018-05-03T11:58:10.012Z,17.10
2018-05-03T12:00:37.511Z,17.10
2018-05-03T12:03:05.015Z,17.20
2018-05-03T12:05:32.510Z,16.90
2018-05-03T12:08:00.739Z,17.20
2018-05-03T12:10:28.243Z,17.20
2018-05-03T12:12:55.716Z,17.10
2018-05-03T12:15:23.969Z,16.80
2018-05-03T12:17:52.299Z,16.90
2018-05-03T12:20:19.790Z,16.90
2018-05-03T12:22:47.270Z,17.40
2018-05-03T12:25:15.519Z,17.10
2018-05-03T12:27:42.994Z,17.00
2018-05-03T12:30:11.272Z,16.50
2018-05-03T12:32:40.520Z,16.90
2018-05-03T12:35:07.986Z,16.80
2018-05-03T12:37:35.457Z,16.90
2018-05-03T12:40:03.015Z,16.50
2018-05-03T12:42:30.552Z,16.60
2018-05-03T12:44:58.020Z,16.70
2018-05-03T12:47:25.556Z,16.70
2018-05-03T12:49:53.094Z,16.70
2018-05-03T12:52:21.336Z,16.60
2018-05-03T12:54:49.237Z,16.60
2018-05-03T12:57:16.728Z,16.60
2018-05-03T12:59:44.191Z,16.50
2018-05-03T13:02:11.719Z,16.90
2018-05-03T13:04:39.227Z,16.90
2018-05-03T13:07:06.686Z,16.40
2018-05-03T13:09:34.551Z,16.30
2018-05-03T13:12:02.058Z,16.20
2018-05-03T13:14:29.535Z,16.20
2018-05-03T13:16:57.346Z,16.40
2018-05-03T13:19:24.834Z,16.60
2018-05-03T13:21:52.329Z,16.80
2018-05-03T13:24:19.863Z,16.80
2018-05-03T13:26:47.575Z,16.40
2018-05-03T13:29:15.867Z,16.40
2018-05-03T13:31:44.131Z,16.80
2018-05-03T13:34:11.605Z,16.80
2018-05-03T13:36:39.118Z,16.80
2018-05-03T13:39:06.600Z,16.30
2018-05-03T13:41:34.076Z,16.50
2018-05-03T13:44:02.326Z,16.80
2018-05-03T13:46:30.138Z,16.80
2018-05-03T13:48:57.607Z,16.60
2018-05-03T13:51:25.108Z,16.50
2018-05-03T13:53:53.394Z,16.30
2018-05-03T13:56:20.871Z,16.30
2018-05-03T13:58:48.390Z,16.30
2018-05-03T14:01:15.947Z,16.30
2018-05-03T14:03:43.524Z,16.30
2018-05-03T14:06:11.003Z,16.10
2018-05-03T14:08:40.005Z,15.80
2018-05-03T14:11:07.491Z,15.80
2018-05-03T14:13:35.077Z,16.00
2018-05-03T14:16:02.560Z,16.20
2018-05-03T14:18:30.802Z,16.10
2018-05-03T14:20:58.381Z,16.10
2018-05-03T14:23:26.551Z,16.10
2018-05-03T14:25:54.035Z,16.10
2018-05-03T14:28:22.284Z,16.10
2018-05-03T14:30:49.782Z,16.00
2018-05-03T14:33:17.257Z,15.90
2018-05-03T14:35:45.090Z,16.10
2018-05-03T14:38:12.616Z,16.10
2018-05-03T14:40:40.114Z,16.20
2018-05-03T14:43:07.600Z,15.90
2018-05-03T14:45:35.112Z,15.70
2018-05-03T14:48:03.402Z,15.90
2018-05-03T14:50:30.902Z,15.90
2018-05-03T14:52:59.311Z,15.90
2018-05-03T14:55:26.780Z,15.90
2018-05-03T14:57:55.052Z,15.70
2018-05-03T15:00:22.551Z,15.70
2018-05-03T15:02:50.026Z,15.60
2018-05-03T15:05:17.544Z,15.60
2018-05-03T15:07:45.060Z,15.70
2018-05-03T15:10:12.643Z,15.40
2018-05-03T15:12:40.250Z,15.50
2018-05-03T15:15:08.504Z,15.60
2018-05-03T15:17:35.997Z,15.40
2018-05-03T15:20:03.492Z,15.40
2018-05-03T15:22:30.977Z,15.30
2018-05-03T15:24:58.479Z,15.30
2018-05-03T15:27:25.965Z,15.10
2018-05-03T15:29:54.232Z,15.10
2018-05-03T15:32:22.480Z,15.50
2018-05-03T15:34:50.033Z,15.40
2018-05-03T15:37:17.526Z,15.40
2018-05-03T15:39:45.790Z,15.30
2018-05-03T15:42:13.288Z,15.10
2018-05-03T15:44:40.887Z,15.00
2018-05-03T15:47:09.173Z,15.00
2018-05-03T15:49:36.987Z,15.00
2018-05-03T15:52:04.495Z,15.00
2018-05-03T15:54:32.002Z,15.00
2018-05-03T15:56:59.853Z,15.00
2018-05-03T15:59:28.087Z,14.90
2018-05-03T16:01:55.575Z,14.90
2018-05-03T16:04:23.183Z,14.80
2018-05-03T16:06:50.659Z,14.90
2018-05-03T16:09:18.171Z,14.80
2018-05-03T16:11:46.033Z,15.10
2018-05-03T16:14:13.558Z,14.80
2018-05-03T16:16:41.015Z,14.70
2018-05-03T16:19:08.794Z,14.80
2018-05-03T16:21:37.040Z,14.70
2018-05-03T16:24:04.538Z,14.70
2018-05-03T16:26:32.786Z,14.70
2018-05-03T16:29:00.266Z,14.70
2018-05-03T16:31:28.506Z,14.40
2018-05-03T16:33:56.309Z,14.40
2018-05-03T16:36:24.551Z,14.40
2018-05-03T16:38:52.034Z,14.40
2018-05-03T16:41:20.617Z,14.40
2018-05-03T16:43:48.853Z,14.40
2018-05-03T16:46:16.733Z,15.70
2018-05-03T16:48:44.908Z,14.20
2018-05-03T16:51:12.420Z,14.30
2018-05-03T16:53:39.923Z,14.20
2018-05-03T16:56:07.707Z,14.20
2018-05-03T16:58:35.946Z,14.10
2018-05-03T17:01:03.437Z,14.10
2018-05-03T17:03:31.744Z,14.00
2018-05-03T17:05:59.623Z,14.00
2018-05-03T17:08:28.234Z,14.00
2018-05-03T17:10:55.744Z,13.90
2018-05-03T17:13:23.238Z,13.80
2018-05-03T17:15:51.121Z,13.80
2018-05-03T17:18:19.646Z,13.60
2018-05-03T17:20:48.427Z,13.70
2018-05-03T17:23:16.666Z,13.50
2018-05-03T17:25:44.847Z,13.50
2018-05-03T17:28:12.327Z,13.50
2018-05-03T17:30:40.594Z,13.40
2018-05-03T17:33:08.811Z,13.40
2018-05-03T17:35:37.068Z,13.30
2018-05-03T17:38:05.005Z,13.30
2018-05-03T17:40:32.522Z,13.30
2018-05-03T17:43:00.450Z,13.20
2018-05-03T17:45:28.699Z,13.10
2018-05-03T17:47:56.494Z,12.90
2018-05-03T17:50:24.759Z,13.00
2018-05-03T17:52:53.002Z,12.90
2018-05-03T17:55:20.918Z,12.80
2018-05-03T17:57:48.791Z,12.70
2018-05-03T18:00:16.284Z,12.80
2018-05-03T18:02:44.146Z,12.70
2018-05-03T18:05:11.692Z,12.70
2018-05-03T18:07:39.990Z,12.70
2018-05-03T18:10:07.786Z,12.60
2018-05-03T18:12:35.270Z,12.50
2018-05-03T18:15:02.770Z,12.50
2018-05-03T18:17:30.639Z,12.30
2018-05-03T18:19:58.507Z,12.30
2018-05-03T18:22:27.511Z,12.20
2018-05-03T18:24:55.416Z,12.20
2018-05-03T18:27:22.898Z,12.10
2018-05-03T18:29:50.372Z,12.20
2018-05-03T18:32:18.191Z,12.10
2018-05-03T18:34:46.057Z,12.10
2018-05-03T18:37:14.009Z,12.00
2018-05-03T18:39:41.524Z,12.00
2018-05-03T18:42:09.433Z,11.90
2018-05-03T18:44:37.429Z,11.90
2018-05-03T18:47:06.139Z,11.80
2018-05-03T18:49:33.722Z,11.80
2018-05-03T18:52:01.618Z,11.70
2018-05-03T18:54:29.448Z,11.60
2018-05-03T18:56:56.930Z,11.60
2018-05-03T18:59:24.399Z,11.60
2018-05-03T19:01:52.278Z,11.60
2018-05-03T19:04:19.891Z,11.40
2018-05-03T19:06:47.358Z,11.40
2018-05-03T19:09:15.273Z,11.30
2018-05-03T19:11:42.834Z,11.30
2018-05-03T19:14:10.996Z,11.30
2018-05-03T19:16:39.342Z,11.20
2018-05-03T19:19:06.785Z,11.20
2018-05-03T19:21:34.314Z,11.20
2018-05-03T19:24:02.056Z,11.30
2018-05-03T19:26:29.556Z,11.20
2018-05-03T19:28:57.784Z,11.10
2018-05-03T19:31:25.282Z,10.90
2018-05-03T19:33:53.188Z,10.90
2018-05-03T19:36:20.650Z,10.90
2018-05-03T19:38:49.238Z,10.90
2018-05-03T19:41:17.475Z,10.80
2018-05-03T19:43:44.965Z,10.90
2018-05-03T19:46:12.858Z,11.00
2018-05-03T19:48:40.326Z,11.00
2018-05-03T19:51:07.846Z,10.80
2018-05-03T19:53:36.418Z,10.80
2018-05-03T19:56:03.897Z,10.80
2018-05-03T19:58:31.798Z,10.80
2018-05-03T20:00:59.619Z,10.80
2018-05-03T20:03:27.966Z,10.80
2018-05-03T20:05:55.435Z,10.70
2018-05-03T20:08:22.963Z,10.70
2018-05-03T20:10:50.533Z,10.60
2018-05-03T20:13:19.151Z,10.60
2018-05-03T20:15:47.471Z,10.50
2018-05-03T20:18:16.112Z,10.40
2018-05-03T20:20:43.752Z,10.40
2018-05-03T20:23:12.094Z,10.50
2018-05-03T20:25:39.606Z,10.40
2018-05-03T20:28:07.955Z,10.40
2018-05-03T20:30:35.485Z,10.30
2018-05-03T20:33:02.976Z,10.30
2018-05-03T20:35:30.875Z,10.30
2018-05-03T20:37:58.788Z,10.20
2018-05-03T20:40:26.648Z,10.20
2018-05-03T20:42:54.147Z,10.10
2018-05-03T20:45:22.041Z,10.00
2018-05-03T20:47:49.526Z,10.00
2018-05-03T20:50:17.396Z,10.00
2018-05-03T20:52:45.709Z,10.10
2018-05-03T20:55:13.183Z,10.10
2018-05-03T20:57:42.844Z,10.00
2018-05-03T21:00:10.323Z,9.90
2018-05-03T21:02:39.317Z,9.80
2018-05-03T21:05:06.840Z,9.90
2018-05-03T21:07:34.722Z,9.90
2018-05-03T21:10:02.226Z,9.90
2018-05-03T21:12:30.256Z,9.90
2018-05-03T21:14:57.797Z,10.00
2018-05-03T21:17:25.327Z,9.80
2018-05-03T21:19:53.225Z,9.80
2018-05-03T21:22:20.705Z,9.70
2018-05-03T21:24:48.177Z,9.60
2018-05-03T21:27:16.084Z,9.80
2018-05-03T21:29:43.933Z,9.70
2018-05-03T21:32:12.158Z,9.70
2018-05-03T21:34:39.685Z,9.70
2018-05-03T21:37:08.334Z,9.70
2018-05-03T21:39:35.765Z,9.70
2018-05-03T21:42:03.218Z,9.80
2018-05-03T21:44:31.006Z,9.60
2018-05-03T21:46:58.858Z,9.60
2018-05-03T21:49:26.358Z,9.60
2018-05-03T21:51:54.210Z,9.60
2018-05-03T21:54:22.098Z,9.70
2018-05-03T21:56:49.972Z,9.70
2018-05-03T21:59:18.008Z,9.60
2018-05-03T22:01:46.237Z,9.60
2018-05-03T22:04:14.154Z,9.50
2018-05-03T22:06:42.037Z,9.60
2018-05-03T22:09:09.897Z,9.60
2018-05-03T22:11:38.139Z,9.50
2018-05-03T22:14:05.942Z,9.60
2018-05-03T22:16:33.426Z,9.50
2018-05-03T22:19:00.879Z,9.40
2018-05-03T22:21:28.744Z,9.50
2018-05-03T22:23:56.629Z,9.50
2018-05-03T22:26:24.906Z,9.50
2018-05-03T22:28:52.752Z,9.50
2018-05-03T22:31:20.199Z,9.50
2018-05-03T22:33:47.678Z,9.40
2018-05-03T22:36:15.157Z,9.20
2018-05-03T22:38:43.029Z,9.30
2018-05-03T22:41:10.548Z,9.20
2018-05-03T22:43:39.194Z,9.20
2018-05-03T22:46:07.434Z,9.20
2018-05-03T22:48:35.308Z,9.20
2018-05-03T22:51:03.096Z,9.20
2018-05-03T22:53:31.329Z,9.00
2018-05-03T22:55:58.826Z,9.00
2018-05-03T22:58:27.330Z,9.00
2018-05-03T23:00:54.810Z,8.90
2018-05-03T23:03:22.681Z,9.00
2018-05-03T23:05:50.413Z,9.00
2018-05-03T23:08:18.297Z,9.10
2018-05-03T23:10:45.767Z,8.90
2018-05-03T23:13:13.589Z,9.00
2018-05-03T23:15:41.822Z,8.90
2018-05-03T23:18:09.681Z,8.90
2018-05-03T23:20:37.442Z,8.80
2018-05-03T23:23:04.904Z,8.80
2018-05-03T23:25:32.384Z,8.80
2018-05-03T23:28:00.277Z,8.90
2018-05-03T23:30:28.570Z,8.80
2018-05-03T23:32:55.978Z,8.70
2018-05-03T23:35:23.806Z,8.70
2018-05-03T23:37:51.267Z,8.60
2018-05-03T23:40:19.228Z,8.80
2018-05-03T23:42:47.559Z,8.70
2018-05-03T23:45:15.446Z,8.60
2018-05-03T23:47:43.303Z,8.60
2018-05-03T23:50:11.214Z,8.70
2018-05-03T23:52:38.766Z,8.60
2018-05-03T23:55:06.232Z,8.70
2018-05-03T23:57:33.738Z,8.60
